createdAt,value
2018-10-18T00:03:54.033Z,73.40
2018-10-18T00:07:57.473Z,72.80
2018-10-18T00:12:00.900Z,74.10
2018-10-18T00:16:04.251Z,74.20
2018-10-18T00:20:07.719Z,72.30
2018-10-18T00:24:11.128Z,73.30
2018-10-18T00:28:14.500Z,74.80
2018-10-18T00:32:17.892Z,73.70
2018-10-18T00:36:21.280Z,74.20
2018-10-18T00:40:24.767Z,73.20
2018-10-18T00:44:28.187Z,73.00
2018-10-18T00:48:31.568Z,73.40
2018-10-18T00:52:34.968Z,74.30
2018-10-18T00:56:38.364Z,73.90
2018-10-18T01:00:41.740Z,73.80
2018-10-18T01:04:45.138Z,73.00
2018-10-18T01:08:48.820Z,72.80
2018-10-18T01:12:52.225Z,74.90
2018-10-18T01:17:00.895Z,73.60
2018-10-18T01:21:04.316Z,76.20
2018-10-18T01:25:07.693Z,72.80
2018-10-18T01:29:11.067Z,73.80
2018-10-18T01:33:14.468Z,72.80
2018-10-18T01:37:17.852Z,72.40
2018-10-18T01:41:21.244Z,74.70
2018-10-18T01:45:24.768Z,74.20
2018-10-18T01:49:28.141Z,72.60
2018-10-18T01:53:31.506Z,74.10
2018-10-18T01:57:34.919Z,74.70
2018-10-18T02:01:38.322Z,74.90
2018-10-18T02:05:41.679Z,72.80
2018-10-18T02:09:45.132Z,73.60
2018-10-18T02:13:48.577Z,74.80
2018-10-18T02:17:52.066Z,75.50
2018-10-18T02:21:55.416Z,73.40
2018-10-18T02:25:58.797Z,76.00
2018-10-18T02:30:02.324Z,74.60
2018-10-18T02:34:05.717Z,75.50
2018-10-18T02:38:09.293Z,75.20
2018-10-18T02:42:12.759Z,74.20
2018-10-18T02:46:16.071Z,75.00
2018-10-18T02:50:19.573Z,75.40
2018-10-18T02:54:23.047Z,75.10
2018-10-18T02:58:26.427Z,75.40
2018-10-18T03:02:29.814Z,75.30
2018-10-18T03:06:33.209Z,72.80
2018-10-18T03:10:36.684Z,73.00
2018-10-18T03:14:40.065Z,74.10
2018-10-18T03:18:43.453Z,75.60
2018-10-18T03:22:46.837Z,76.20
2018-10-18T03:26:50.232Z,75.80
2018-10-18T03:30:53.594Z,75.40
2018-10-18T03:34:57.017Z,75.30
2018-10-18T03:39:00.455Z,75.00
2018-10-18T03:43:03.852Z,73.30
2018-10-18T03:47:07.265Z,76.00
2018-10-18T03:51:10.688Z,73.60
2018-10-18T03:55:14.103Z,74.10
2018-10-18T03:59:17.608Z,75.50
2018-10-18T04:03:20.988Z,75.40
2018-10-18T04:07:24.397Z,76.00
2018-10-18T04:11:27.758Z,74.30
2018-10-18T04:15:31.148Z,75.60
2018-10-18T04:19:34.584Z,75.20
2018-10-18T04:23:37.997Z,76.10
2018-10-18T04:27:41.372Z,75.90
2018-10-18T04:31:44.751Z,74.20
2018-10-18T04:35:48.181Z,75.50
2018-10-18T04:39:51.538Z,74.50
2018-10-18T04:43:54.912Z,74.00
2018-10-18T04:47:58.562Z,75.10
2018-10-18T04:52:01.774Z,75.60
2018-10-18T04:56:05.164Z,73.90
2018-10-18T05:00:08.753Z,75.50
2018-10-18T05:04:12.149Z,73.90
2018-10-18T05:08:15.568Z,75.10
2018-10-18T05:12:18.941Z,74.90
2018-10-18T05:16:22.339Z,75.10
2018-10-18T05:20:25.791Z,75.20
2018-10-18T05:24:29.242Z,73.90
2018-10-18T05:28:32.652Z,73.80
2018-10-18T05:32:36.041Z,74.10
2018-10-18T05:36:39.436Z,73.80
2018-10-18T05:40:42.805Z,76.30
2018-10-18T05:44:46.222Z,76.70
2018-10-18T05:48:49.636Z,74.60
2018-10-18T05:52:53.061Z,74.70
2018-10-18T05:56:56.523Z,76.00
2018-10-18T06:01:00.531Z,74.20
2018-10-18T06:05:04.255Z,74.30
2018-10-18T06:09:11.395Z,74.70
2018-10-18T06:13:15.886Z,75.80
2018-10-18T06:17:19.405Z,75.90
2018-10-18T06:21:23.925Z,74.00
2018-10-18T06:25:28.332Z,74.70
2018-10-18T06:29:32.497Z,74.60
2018-10-18T06:33:37.291Z,75.30
2018-10-18T06:37:41.997Z,75.50
2018-10-18T06:41:45.771Z,74.80
2018-10-18T06:45:49.823Z,74.80
2018-10-18T06:49:53.906Z,76.50
2018-10-18T06:53:57.815Z,77.10
2018-10-18T06:58:01.712Z,77.80
2018-10-18T07:02:05.411Z,75.80
2018-10-18T07:06:09.666Z,75.90
2018-10-18T07:10:13.511Z,76.80
2018-10-18T07:14:18.157Z,80.00
2018-10-18T07:18:21.865Z,76.80
2018-10-18T07:22:25.236Z,80.80
2018-10-18T07:26:28.665Z,76.80
2018-10-18T07:30:32.084Z,76.00
2018-10-18T07:34:35.483Z,75.10
2018-10-18T07:38:39.040Z,75.90
2018-10-18T07:42:42.546Z,75.80
2018-10-18T07:46:46.069Z,82.30
2018-10-18T07:50:49.603Z,76.20
2018-10-18T07:54:54.961Z,76.50
2018-10-18T07:58:58.865Z,77.60
2018-10-18T08:03:03.386Z,78.40
2018-10-18T08:07:07.374Z,75.60
2018-10-18T08:11:11.370Z,76.40
2018-10-18T08:15:16.585Z,76.40
2018-10-18T08:19:20.190Z,75.70
2018-10-18T08:23:23.973Z,76.90
2018-10-18T08:27:28.069Z,75.60
2018-10-18T08:31:32.155Z,75.60
2018-10-18T08:35:36.693Z,75.40
2018-10-18T08:39:40.699Z,75.90
2018-10-18T08:43:44.708Z,75.70
2018-10-18T08:47:48.747Z,77.40
2018-10-18T08:51:52.977Z,77.90
2018-10-18T08:55:56.955Z,74.80
2018-10-18T09:00:01.332Z,74.80
2018-10-18T09:04:05.211Z,73.20
2018-10-18T09:08:09.132Z,72.00
2018-10-18T09:12:13.191Z,76.90
2018-10-18T09:16:17.192Z,73.00
2018-10-18T09:20:21.219Z,73.40
2018-10-18T09:24:25.134Z,73.50
2018-10-18T09:28:28.970Z,74.50
2018-10-18T09:32:33.217Z,73.90
2018-10-18T09:36:36.978Z,75.80
2018-10-18T09:40:40.761Z,74.50
2018-10-18T09:44:47.433Z,75.50
2018-10-18T09:49:01.159Z,75.80
2018-10-18T09:53:06.858Z,73.90
2018-10-18T09:57:14.601Z,73.20
2018-10-18T10:01:36.896Z,74.20
2018-10-18T10:05:44.695Z,73.40
2018-10-18T10:09:49.788Z,74.90
2018-10-18T10:13:53.401Z,75.10
2018-10-18T10:17:59.326Z,74.40
2018-10-18T10:22:04.089Z,74.60
2018-10-18T10:26:11.917Z,74.50
2018-10-18T10:30:37.953Z,77.30
2018-10-18T10:34:48.664Z,75.10
2018-10-18T10:38:53.128Z,74.90
2018-10-18T10:43:05.337Z,74.40
2018-10-18T10:47:10.109Z,74.90
2018-10-18T10:51:17.992Z,75.80
2018-10-18T10:55:21.923Z,77.00
2018-10-18T10:59:40.170Z,75.70
2018-10-18T11:03:46.443Z,75.60
2018-10-18T11:07:57.471Z,75.70
2018-10-18T11:12:07.482Z,75.80
2018-10-18T11:16:11.970Z,75.60
2018-10-18T11:20:25.124Z,76.50
2018-10-18T11:24:36.178Z,74.80
2018-10-18T11:28:46.408Z,75.10
2018-10-18T11:32:54.681Z,76.10
2018-10-18T11:37:00.609Z,74.80
2018-10-18T11:41:05.969Z,75.50
2018-10-18T11:45:11.269Z,76.40
2018-10-18T11:49:15.622Z,76.00
2018-10-18T11:53:20.114Z,76.30
2018-10-18T11:57:32.639Z,76.70
2018-10-18T12:01:40.615Z,77.20
2018-10-18T12:05:48.256Z,77.70
2018-10-18T12:09:54.452Z,76.80
2018-10-18T12:14:03.473Z,77.50
2018-10-18T12:18:10.214Z,76.50
2018-10-18T12:22:15.735Z,77.80
2018-10-18T12:26:22.020Z,76.30
2018-10-18T12:30:27.844Z,76.30
2018-10-18T12:34:35.106Z,78.30
2018-10-18T12:38:43.520Z,76.30
2018-10-18T12:42:53.103Z,77.10
2018-10-18T12:46:58.385Z,77.90
2018-10-18T12:51:02.049Z,77.40
2018-10-18T12:55:05.998Z,76.90
2018-10-18T12:59:10.956Z,76.30
2018-10-18T13:03:14.678Z,79.00
2018-10-18T13:07:18.445Z,78.00
2018-10-18T13:11:22.077Z,79.20
2018-10-18T13:15:25.730Z,78.60
2018-10-18T13:19:29.382Z,77.20
2018-10-18T13:23:36.207Z,76.90
2018-10-18T13:27:43.982Z,78.20
2018-10-18T13:31:51.102Z,76.60
2018-10-18T13:36:01.117Z,76.60
2018-10-18T13:40:05.932Z,76.10
2018-10-18T13:44:19.694Z,77.60
2018-10-18T13:48:28.375Z,78.20
2018-10-18T13:52:37.188Z,76.70
2018-10-18T13:56:42.741Z,77.50
2018-10-18T14:00:48.437Z,80.10
2018-10-18T14:04:52.785Z,78.40
2018-10-18T14:08:57.617Z,77.00
2018-10-18T14:13:01.742Z,78.90
2018-10-18T14:17:07.525Z,77.10
2018-10-18T14:21:16.296Z,77.50
2018-10-18T14:25:20.508Z,76.70
2018-10-18T14:29:24.461Z,79.90
2018-10-18T14:33:39.536Z,82.10
2018-10-18T14:37:52.849Z,80.40
2018-10-18T14:41:57.380Z,82.60
2018-10-18T14:46:02.844Z,77.40
2018-10-18T14:50:11.883Z,78.70
2018-10-18T14:54:15.992Z,77.80
2018-10-18T14:58:26.424Z,78.30
2018-10-18T15:02:31.355Z,80.60
2018-10-18T15:06:35.461Z,77.90
2018-10-18T15:10:40.146Z,78.70
2018-10-18T15:14:48.288Z,79.10
2018-10-18T15:18:57.834Z,78.30
2018-10-18T15:23:03.060Z,77.70
2018-10-18T15:27:07.439Z,78.60
2018-10-18T15:31:12.254Z,78.60
2018-10-18T15:35:20.296Z,78.30
2018-10-18T15:39:40.810Z,81.10
2018-10-18T15:43:45.836Z,81.00
2018-10-18T15:48:00.170Z,78.50
2018-10-18T15:52:08.511Z,78.60
2018-10-18T15:56:17.202Z,78.40
2018-10-18T16:00:23.511Z,80.10
2018-10-18T16:04:29.335Z,81.30
2018-10-18T16:08:39.353Z,78.90
2018-10-18T16:12:43.170Z,79.40
2018-10-18T16:16:47.295Z,79.00
2018-10-18T16:25:20.081Z,78.50
2018-10-18T16:29:27.489Z,79.00
2018-10-18T16:33:37.718Z,81.00
2018-10-18T16:37:47.688Z,79.80
2018-10-18T16:41:57.588Z,79.30
2018-10-18T16:46:12.572Z,78.60
2018-10-18T16:50:19.779Z,80.30
2018-10-18T16:58:42.152Z,78.50
2018-10-18T17:02:53.592Z,80.10
2018-10-18T17:07:00.590Z,81.00
2018-10-18T17:11:07.112Z,78.80
2018-10-18T17:15:23.167Z,79.60
2018-10-18T17:19:36.197Z,79.80
2018-10-18T17:23:42.864Z,79.90
2018-10-18T17:27:49.033Z,83.30
2018-10-18T17:31:55.666Z,78.90
2018-10-18T17:36:01.498Z,78.90
2018-10-18T17:40:08.223Z,79.20
2018-10-18T17:44:15.325Z,78.80
2018-10-18T17:48:24.991Z,79.20
2018-10-18T17:52:37.167Z,78.30
2018-10-18T17:56:52.068Z,78.80
2018-10-18T18:01:05.492Z,78.60
2018-10-18T18:05:10.409Z,78.70
2018-10-18T18:09:23.407Z,81.20
2018-10-18T18:13:31.104Z,78.80
2018-10-18T18:17:38.002Z,78.30
2018-10-18T18:21:42.016Z,79.20
2018-10-18T18:25:46.711Z,78.40
2018-10-18T18:30:02.970Z,78.50
2018-10-18T18:34:14.763Z,78.70
2018-10-18T18:38:21.708Z,78.60
2018-10-18T18:42:29.510Z,78.70
2018-10-18T18:46:47.870Z,80.30
2018-10-18T18:50:54.399Z,81.70
2018-10-18T18:55:06.932Z,78.70
2018-10-18T18:59:10.525Z,80.20
2018-10-18T19:03:16.493Z,79.70
2018-10-18T19:07:24.291Z,78.50
2018-10-18T19:11:36.076Z,78.50
2018-10-18T19:15:50.238Z,78.70
2018-10-18T19:19:56.241Z,78.50
2018-10-18T19:24:00.015Z,79.50
2018-10-18T19:28:07.326Z,78.80
2018-10-18T19:32:11.698Z,78.80
2018-10-18T19:36:15.893Z,78.50
2018-10-18T19:40:20.048Z,78.30
2018-10-18T19:44:25.458Z,77.80
2018-10-18T19:48:30.607Z,78.80
2018-10-18T19:52:34.911Z,77.60
2018-10-18T19:56:38.940Z,78.10
2018-10-18T20:00:45.481Z,77.80
2018-10-18T20:04:48.997Z,78.60
2018-10-18T20:08:54.825Z,78.90
2018-10-18T20:13:01.333Z,78.70
2018-10-18T20:17:06.766Z,80.30
2018-10-18T20:21:13.065Z,79.90
2018-10-18T20:25:18.211Z,80.30
2018-10-18T20:29:21.751Z,80.40
2018-10-18T20:33:26.656Z,80.10
2018-10-18T20:37:30.083Z,79.10
2018-10-18T20:41:34.103Z,79.10
2018-10-18T20:45:37.631Z,79.90
2018-10-18T20:49:41.899Z,79.70
2018-10-18T20:53:46.048Z,79.40
2018-10-18T20:57:50.439Z,78.80
2018-10-18T21:01:54.272Z,78.90
2018-10-18T21:05:58.639Z,80.40
2018-10-18T21:10:02.328Z,78.90
2018-10-18T21:14:06.253Z,79.00
2018-10-18T21:18:09.790Z,80.60
2018-10-18T21:22:13.303Z,78.50
2018-10-18T21:26:16.690Z,79.60
2018-10-18T21:30:20.182Z,80.30
2018-10-18T21:34:23.646Z,78.90
2018-10-18T21:38:27.057Z,79.00
2018-10-18T21:42:31.224Z,79.30
2018-10-18T21:46:42.199Z,78.70
2018-10-18T21:50:45.674Z,79.50
2018-10-18T21:54:49.045Z,78.80
2018-10-18T21:58:52.854Z,79.40
2018-10-18T22:02:56.575Z,80.20
2018-10-18T22:07:00.132Z,81.10
2018-10-18T22:11:03.583Z,79.80
2018-10-18T22:15:08.744Z,78.80
2018-10-18T22:19:12.447Z,78.90
2018-10-18T22:23:15.887Z,79.50
2018-10-18T22:27:19.280Z,80.50
2018-10-18T22:31:22.666Z,80.40
2018-10-18T22:35:26.084Z,80.00
2018-10-18T22:39:29.491Z,79.50
2018-10-18T22:43:33.629Z,78.20
2018-10-18T22:47:37.240Z,78.10
2018-10-18T22:51:41.834Z,79.00
2018-10-18T22:55:45.257Z,77.80
2018-10-18T22:59:48.707Z,78.10
2018-10-18T23:03:52.124Z,79.10
2018-10-18T23:07:55.594Z,77.80
2018-10-18T23:11:59.084Z,78.30
2018-10-18T23:16:02.486Z,78.80
2018-10-18T23:20:06.739Z,79.90
2018-10-18T23:24:10.183Z,80.20
2018-10-18T23:28:13.619Z,81.30
2018-10-18T23:32:17.056Z,82.50
2018-10-18T23:36:20.462Z,80.90
2018-10-18T23:40:23.850Z,81.10
2018-10-18T23:44:27.673Z,80.10
2018-10-18T23:48:31.112Z,80.00
2018-10-18T23:52:34.856Z,80.10
2018-10-18T23:56:38.236Z,78.20
